sensor_id;sensor_type;location;lat;lon;timestamp;pressure;altitude;pressure_sealevel;temperature;humidity
39739;BME280;25422;48.286;8.484;2023-03-19T00:01:17;93814.72;;;5.45;100.00
39739;BME280;25422;48.286;8.484;2023-03-19T00:03:42;93817.78;;;5.40;100.00
39739;BME280;25422;48.286;8.484;2023-03-19T00:06:08;93820.66;;;5.37;100.00
39739;BME280;25422;48.286;8.484;2023-03-19T00:08:34;93815.69;;;5.44;100.00
39739;BME280;25422;48.286;8.484;2023-03-19T00:11:07;93814.09;;;5.43;100.00
39739;BME280;25422;48.286;8.484;2023-03-19T00:13:33;93811.03;;;5.47;100.00
39739;BME280;25422;48.286;8.484;2023-03-19T00:15:58;93808.44;;;5.47;100.00
39739;BME280;25422;48.286;8.484;2023-03-19T00:18:23;93810.66;;;5.60;100.00
39739;BME280;25422;48.286;8.484;2023-03-19T00:20:49;93811.91;;;5.56;100.00
39739;BME280;25422;48.286;8.484;2023-03-19T00:23:14;93821.25;;;5.49;100.00
39739;BME280;25422;48.286;8.484;2023-03-19T00:25:40;93828.38;;;5.47;100.00
39739;BME280;25422;48.286;8.484;2023-03-19T00:28:06;93829.25;;;5.37;100.00
39739;BME280;25422;48.286;8.484;2023-03-19T00:30:32;93832.38;;;5.41;100.00
39739;BME280;25422;48.286;8.484;2023-03-19T00:32:58;93836.44;;;5.44;100.00
39739;BME280;25422;48.286;8.484;2023-03-19T00:35:23;93828.38;;;5.47;100.00
39739;BME280;25422;48.286;8.484;2023-03-19T00:37:48;93831.94;;;5.46;100.00
39739;BME280;25422;48.286;8.484;2023-03-19T00:40:14;93836.81;;;5.49;100.00
39739;BME280;25422;48.286;8.484;2023-03-19T00:42:39;93838.47;;;5.50;100.00
39739;BME280;25422;48.286;8.484;2023-03-19T00:45:06;93830.53;;;5.51;100.00
39739;BME280;25422;48.286;8.484;2023-03-19T00:47:32;93823.94;;;5.57;100.00
39739;BME280;25422;48.286;8.484;2023-03-19T00:49:57;93827.72;;;5.63;100.00
39739;BME280;25422;48.286;8.484;2023-03-19T00:52:23;93836.72;;;5.68;100.00
39739;BME280;25422;48.286;8.484;2023-03-19T00:54:48;93830.03;;;5.66;100.00
39739;BME280;25422;48.286;8.484;2023-03-19T00:57:14;93830.69;;;5.68;100.00
39739;BME280;25422;48.286;8.484;2023-03-19T00:59:39;93834.38;;;5.65;100.00
39739;BME280;25422;48.286;8.484;2023-03-19T01:02:04;93834.69;;;5.62;100.00
39739;BME280;25422;48.286;8.484;2023-03-19T01:04:30;93833.78;;;5.53;100.00
39739;BME280;25422;48.286;8.484;2023-03-19T01:06:55;93831.78;;;5.47;100.00
39739;BME280;25422;48.286;8.484;2023-03-19T01:09:24;93832.09;;;5.44;100.00
39739;BME280;25422;48.286;8.484;2023-03-19T01:11:50;93838.53;;;5.40;100.00
39739;BME280;25422;48.286;8.484;2023-03-19T01:14:15;93836.38;;;5.35;100.00
39739;BME280;25422;48.286;8.484;2023-03-19T01:16:42;93833.19;;;5.42;100.00
39739;BME280;25422;48.286;8.484;2023-03-19T01:19:07;93832.25;;;5.43;100.00
39739;BME280;25422;48.286;8.484;2023-03-19T01:21:32;93836.06;;;5.38;100.00
39739;BME280;25422;48.286;8.484;2023-03-19T01:24:00;93842.41;;;5.26;100.00
39739;BME280;25422;48.286;8.484;2023-03-19T01:26:27;93841.38;;;5.19;100.00
39739;BME280;25422;48.286;8.484;2023-03-19T01:28:57;93837.19;;;5.08;100.00
39739;BME280;25422;48.286;8.484;2023-03-19T01:31:23;93834.22;;;5.03;100.00
39739;BME280;25422;48.286;8.484;2023-03-19T01:34:01;93841.59;;;4.98;100.00
39739;BME280;25422;48.286;8.484;2023-03-19T01:36:44;93846.94;;;4.96;100.00
39739;BME280;25422;48.286;8.484;2023-03-19T01:39:13;93838.91;;;4.99;100.00
39739;BME280;25422;48.286;8.484;2023-03-19T01:41:39;93843.44;;;4.87;100.00
39739;BME280;25422;48.286;8.484;2023-03-19T01:44:24;93845.81;;;4.71;100.00
39739;BME280;25422;48.286;8.484;2023-03-19T01:47:18;93853.38;;;4.54;100.00
39739;BME280;25422;48.286;8.484;2023-03-19T01:50:18;93845.78;;;4.33;100.00
39739;BME280;25422;48.286;8.484;2023-03-19T01:52:47;93852.09;;;4.21;100.00
39739;BME280;25422;48.286;8.484;2023-03-19T01:55:23;93852.63;;;4.15;100.00
39739;BME280;25422;48.286;8.484;2023-03-19T01:58:09;93843.66;;;4.09;100.00
39739;BME280;25422;48.286;8.484;2023-03-19T02:00:54;93849.38;;;4.13;100.00
39739;BME280;25422;48.286;8.484;2023-03-19T02:03:20;93853.19;;;4.09;100.00
39739;BME280;25422;48.286;8.484;2023-03-19T02:05:56;93855.22;;;4.15;100.00
39739;BME280;25422;48.286;8.484;2023-03-19T02:08:22;93850.03;;;4.25;100.00
39739;BME280;25422;48.286;8.484;2023-03-19T02:10:50;93847.69;;;4.31;100.00
39739;BME280;25422;48.286;8.484;2023-03-19T02:13:18;93841.66;;;4.41;100.00
39739;BME280;25422;48.286;8.484;2023-03-19T02:15:44;93846.00;;;4.50;100.00
39739;BME280;25422;48.286;8.484;2023-03-19T02:18:09;93838.66;;;4.55;100.00
39739;BME280;25422;48.286;8.484;2023-03-19T02:20:50;93839.19;;;4.59;100.00
39739;BME280;25422;48.286;8.484;2023-03-19T02:23:29;93837.41;;;4.59;100.00
39739;BME280;25422;48.286;8.484;2023-03-19T02:26:15;93842.16;;;4.64;100.00
39739;BME280;25422;48.286;8.484;2023-03-19T02:28:45;93837.66;;;4.66;100.00
39739;BME280;25422;48.286;8.484;2023-03-19T02:31:15;93832.31;;;4.67;100.00
39739;BME280;25422;48.286;8.484;2023-03-19T02:33:42;93839.00;;;4.70;100.00
39739;BME280;25422;48.286;8.484;2023-03-19T02:36:13;93840.59;;;4.81;100.00
39739;BME280;25422;48.286;8.484;2023-03-19T02:38:41;93843.75;;;4.84;100.00
39739;BME280;25422;48.286;8.484;2023-03-19T02:41:08;93845.78;;;4.81;100.00
39739;BME280;25422;48.286;8.484;2023-03-19T02:43:37;93841.56;;;4.80;100.00
39739;BME280;25422;48.286;8.484;2023-03-19T02:46:05;93843.50;;;4.78;100.00
39739;BME280;25422;48.286;8.484;2023-03-19T02:48:31;93839.91;;;4.79;100.00
39739;BME280;25422;48.286;8.484;2023-03-19T02:50:57;93835.41;;;4.81;100.00
39739;BME280;25422;48.286;8.484;2023-03-19T02:53:24;93842.75;;;4.85;100.00
39739;BME280;25422;48.286;8.484;2023-03-19T02:55:50;93847.53;;;4.90;100.00
39739;BME280;25422;48.286;8.484;2023-03-19T02:58:16;93848.66;;;5.05;100.00
39739;BME280;25422;48.286;8.484;2023-03-19T03:00:41;93841.94;;;5.13;100.00
39739;BME280;25422;48.286;8.484;2023-03-19T03:03:07;93841.00;;;5.14;100.00
39739;BME280;25422;48.286;8.484;2023-03-19T03:05:33;93854.19;;;5.20;100.00
39739;BME280;25422;48.286;8.484;2023-03-19T03:08:00;93852.94;;;5.24;100.00
39739;BME280;25422;48.286;8.484;2023-03-19T03:10:26;93861.56;;;5.25;100.00
39739;BME280;25422;48.286;8.484;2023-03-19T03:12:52;93855.47;;;5.34;100.00
39739;BME280;25422;48.286;8.484;2023-03-19T03:15:17;93850.28;;;5.34;100.00
39739;BME280;25422;48.286;8.484;2023-03-19T03:17:43;93854.59;;;5.44;100.00
39739;BME280;25422;48.286;8.484;2023-03-19T03:20:12;93856.09;;;5.46;100.00
39739;BME280;25422;48.286;8.484;2023-03-19T03:22:38;93859.88;;;5.52;100.00
39739;BME280;25422;48.286;8.484;2023-03-19T03:25:04;93866.41;;;5.56;100.00
39739;BME280;25422;48.286;8.484;2023-03-19T03:27:29;93858.78;;;5.54;100.00
39739;BME280;25422;48.286;8.484;2023-03-19T03:29:56;93860.88;;;5.51;100.00
39739;BME280;25422;48.286;8.484;2023-03-19T03:32:21;93859.66;;;5.45;100.00
39739;BME280;25422;48.286;8.484;2023-03-19T03:34:47;93870.03;;;5.45;100.00
39739;BME280;25422;48.286;8.484;2023-03-19T03:37:12;93875.13;;;5.37;100.00
39739;BME280;25422;48.286;8.484;2023-03-19T03:39:38;93873.94;;;5.31;100.00
39739;BME280;25422;48.286;8.484;2023-03-19T03:42:04;93875.19;;;5.27;100.00
39739;BME280;25422;48.286;8.484;2023-03-19T03:44:31;93879.72;;;5.25;100.00
39739;BME280;25422;48.286;8.484;2023-03-19T03:46:56;93869.25;;;5.17;100.00
39739;BME280;25422;48.286;8.484;2023-03-19T03:49:22;93875.53;;;5.14;100.00
39739;BME280;25422;48.286;8.484;2023-03-19T03:51:47;93876.63;;;5.12;100.00
39739;BME280;25422;48.286;8.484;2023-03-19T03:54:13;93874.28;;;5.18;100.00
39739;BME280;25422;48.286;8.484;2023-03-19T03:56:39;93872.88;;;5.24;100.00
39739;BME280;25422;48.286;8.484;2023-03-19T03:59:04;93883.69;;;5.19;100.00
39739;BME280;25422;48.286;8.484;2023-03-19T04:01:29;93881.09;;;5.19;100.00
39739;BME280;25422;48.286;8.484;2023-03-19T04:03:55;93886.97;;;5.21;100.00
39739;BME280;25422;48.286;8.484;2023-03-19T04:06:22;93877.78;;;5.27;100.00
39739;BME280;25422;48.286;8.484;2023-03-19T04:09:03;93884.31;;;5.31;100.00
39739;BME280;25422;48.286;8.484;2023-03-19T04:11:29;93883.66;;;5.29;100.00
39739;BME280;25422;48.286;8.484;2023-03-19T04:13:55;93898.38;;;5.29;100.00
39739;BME280;25422;48.286;8.484;2023-03-19T04:16:23;93901.56;;;5.22;100.00
39739;BME280;25422;48.286;8.484;2023-03-19T04:18:48;93900.47;;;5.15;100.00
39739;BME280;25422;48.286;8.484;2023-03-19T04:21:14;93900.22;;;5.18;100.00
39739;BME280;25422;48.286;8.484;2023-03-19T04:23:40;93896.41;;;5.13;100.00
39739;BME280;25422;48.286;8.484;2023-03-19T04:26:06;93906.13;;;5.11;100.00
39739;BME280;25422;48.286;8.484;2023-03-19T04:28:32;93899.28;;;5.10;100.00
39739;BME280;25422;48.286;8.484;2023-03-19T04:30:59;93892.00;;;5.23;100.00
39739;BME280;25422;48.286;8.484;2023-03-19T04:33:25;93898.13;;;5.22;100.00
39739;BME280;25422;48.286;8.484;2023-03-19T04:35:51;93898.44;;;5.19;100.00
39739;BME280;25422;48.286;8.484;2023-03-19T04:38:17;93903.47;;;5.20;100.00
39739;BME280;25422;48.286;8.484;2023-03-19T04:40:42;93902.66;;;5.20;100.00
39739;BME280;25422;48.286;8.484;2023-03-19T04:43:08;93892.69;;;5.25;100.00
39739;BME280;25422;48.286;8.484;2023-03-19T04:45:33;93895.69;;;5.20;100.00
39739;BME280;25422;48.286;8.484;2023-03-19T04:47:59;93905.41;;;5.18;100.00
39739;BME280;25422;48.286;8.484;2023-03-19T04:50:26;93899.00;;;5.13;100.00
39739;BME280;25422;48.286;8.484;2023-03-19T04:52:52;93898.63;;;5.07;100.00
39739;BME280;25422;48.286;8.484;2023-03-19T04:55:19;93904.47;;;5.10;100.00
39739;BME280;25422;48.286;8.484;2023-03-19T04:57:55;93904.75;;;5.06;100.00
39739;BME280;25422;48.286;8.484;2023-03-19T05:00:25;93902.16;;;5.06;100.00
39739;BME280;25422;48.286;8.484;2023-03-19T05:02:52;93905.31;;;5.10;100.00
39739;BME280;25422;48.286;8.484;2023-03-19T05:05:17;93902.97;;;5.17;100.00
39739;BME280;25422;48.286;8.484;2023-03-19T05:07:43;93902.81;;;5.18;100.00
39739;BME280;25422;48.286;8.484;2023-03-19T05:10:10;93899.28;;;5.10;100.00
39739;BME280;25422;48.286;8.484;2023-03-19T05:12:36;93905.81;;;5.14;100.00
39739;BME280;25422;48.286;8.484;2023-03-19T05:15:03;93907.47;;;5.15;100.00
39739;BME280;25422;48.286;8.484;2023-03-19T05:17:35;93909.09;;;5.16;100.00
39739;BME280;25422;48.286;8.484;2023-03-19T05:20:14;93911.41;;;5.19;100.00
39739;BME280;25422;48.286;8.484;2023-03-19T05:22:46;93912.75;;;5.23;100.00
39739;BME280;25422;48.286;8.484;2023-03-19T05:25:13;93913.69;;;5.22;100.00
39739;BME280;25422;48.286;8.484;2023-03-19T05:27:40;93918.38;;;5.18;100.00
39739;BME280;25422;48.286;8.484;2023-03-19T05:30:08;93921.78;;;5.19;100.00
39739;BME280;25422;48.286;8.484;2023-03-19T05:33:13;93923.25;;;5.21;100.00
39739;BME280;25422;48.286;8.484;2023-03-19T05:35:40;93923.75;;;5.35;100.00
39739;BME280;25422;48.286;8.484;2023-03-19T05:38:17;93931.09;;;5.39;100.00
39739;BME280;25422;48.286;8.484;2023-03-19T05:40:50;93931.38;;;5.36;100.00
39739;BME280;25422;48.286;8.484;2023-03-19T05:43:24;93926.59;;;5.42;100.00
39739;BME280;25422;48.286;8.484;2023-03-19T05:45:50;93928.09;;;5.44;100.00
39739;BME280;25422;48.286;8.484;2023-03-19T05:48:24;93928.88;;;5.45;100.00
39739;BME280;25422;48.286;8.484;2023-03-19T05:50:51;93923.69;;;5.45;100.00
39739;BME280;25422;48.286;8.484;2023-03-19T05:53:21;93930.25;;;5.49;100.00
39739;BME280;25422;48.286;8.484;2023-03-19T05:56:19;93925.13;;;5.57;100.00
39739;BME280;25422;48.286;8.484;2023-03-19T05:59:04;93920.03;;;5.65;100.00
39739;BME280;25422;48.286;8.484;2023-03-19T06:01:35;93923.00;;;5.70;100.00
39739;BME280;25422;48.286;8.484;2023-03-19T06:04:00;93921.09;;;5.72;100.00
39739;BME280;25422;48.286;8.484;2023-03-19T06:06:26;93930.81;;;5.70;100.00
39739;BME280;25422;48.286;8.484;2023-03-19T06:08:51;93930.81;;;5.70;100.00
39739;BME280;25422;48.286;8.484;2023-03-19T06:11:25;93934.59;;;5.76;100.00
39739;BME280;25422;48.286;8.484;2023-03-19T06:14:07;93938.75;;;5.87;100.00
39739;BME280;25422;48.286;8.484;2023-03-19T06:16:37;93935.19;;;5.88;100.00
39739;BME280;25422;48.286;8.484;2023-03-19T06:19:03;93934.09;;;5.90;100.00
39739;BME280;25422;48.286;8.484;2023-03-19T06:21:29;93946.63;;;5.95;100.00
39739;BME280;25422;48.286;8.484;2023-03-19T06:23:59;93940.88;;;6.01;100.00
39739;BME280;25422;48.286;8.484;2023-03-19T06:26:29;93940.16;;;6.09;100.00
39739;BME280;25422;48.286;8.484;2023-03-19T06:28:57;93934.19;;;6.17;100.00
39739;BME280;25422;48.286;8.484;2023-03-19T06:31:22;93937.25;;;6.30;100.00
39739;BME280;25422;48.286;8.484;2023-03-19T06:33:51;93931.97;;;6.40;100.00
39739;BME280;25422;48.286;8.484;2023-03-19T06:36:16;93932.88;;;6.49;100.00
39739;BME280;25422;48.286;8.484;2023-03-19T06:38:42;93943.38;;;6.65;100.00
39739;BME280;25422;48.286;8.484;2023-03-19T06:41:07;93937.81;;;6.60;100.00
39739;BME280;25422;48.286;8.484;2023-03-19T06:43:33;93939.19;;;6.72;100.00
39739;BME280;25422;48.286;8.484;2023-03-19T06:46:02;93943.81;;;6.79;100.00
39739;BME280;25422;48.286;8.484;2023-03-19T06:48:27;93946.09;;;6.82;100.00
39739;BME280;25422;48.286;8.484;2023-03-19T06:50:53;93947.56;;;6.84;100.00
39739;BME280;25422;48.286;8.484;2023-03-19T06:53:18;93941.56;;;6.84;100.00
39739;BME280;25422;48.286;8.484;2023-03-19T06:55:47;93946.97;;;6.90;100.00
39739;BME280;25422;48.286;8.484;2023-03-19T06:58:12;93941.00;;;6.98;100.00
39739;BME280;25422;48.286;8.484;2023-03-19T07:00:37;93946.16;;;6.90;100.00
39739;BME280;25422;48.286;8.484;2023-03-19T07:03:03;93946.50;;;6.95;100.00
39739;BME280;25422;48.286;8.484;2023-03-19T07:05:28;93947.88;;;7.07;100.00
39739;BME280;25422;48.286;8.484;2023-03-19T07:07:54;93947.88;;;7.07;100.00
39739;BME280;25422;48.286;8.484;2023-03-19T07:10:20;93950.97;;;7.03;100.00
39739;BME280;25422;48.286;8.484;2023-03-19T07:12:46;93949.72;;;7.15;100.00
39739;BME280;25422;48.286;8.484;2023-03-19T07:15:12;93950.13;;;7.29;100.00
39739;BME280;25422;48.286;8.484;2023-03-19T07:17:38;93943.69;;;7.41;100.00
39739;BME280;25422;48.286;8.484;2023-03-19T07:20:04;93950.88;;;7.55;100.00
39739;BME280;25422;48.286;8.484;2023-03-19T07:22:29;93952.47;;;7.83;100.00
39739;BME280;25422;48.286;8.484;2023-03-19T07:24:55;93966.09;;;8.36;100.00
39739;BME280;25422;48.286;8.484;2023-03-19T07:27:20;93965.00;;;8.80;100.00
39739;BME280;25422;48.286;8.484;2023-03-19T07:29:46;93967.56;;;9.04;100.00
39739;BME280;25422;48.286;8.484;2023-03-19T07:32:11;93963.19;;;9.13;100.00
39739;BME280;25422;48.286;8.484;2023-03-19T07:34:37;93964.19;;;8.87;100.00
39739;BME280;25422;48.286;8.484;2023-03-19T07:37:02;93969.22;;;8.89;100.00
39739;BME280;25422;48.286;8.484;2023-03-19T07:39:28;93966.28;;;9.00;100.00
39739;BME280;25422;48.286;8.484;2023-03-19T07:41:53;93969.97;;;9.39;100.00
39739;BME280;25422;48.286;8.484;2023-03-19T07:44:21;93959.69;;;10.17;100.00
39739;BME280;25422;48.286;8.484;2023-03-19T07:46:47;93961.00;;;10.67;100.00
39739;BME280;25422;48.286;8.484;2023-03-19T07:49:12;93960.78;;;10.77;100.00
39739;BME280;25422;48.286;8.484;2023-03-19T07:51:37;93961.84;;;10.68;100.00
39739;BME280;25422;48.286;8.484;2023-03-19T07:54:03;93962.47;;;10.46;100.00
39739;BME280;25422;48.286;8.484;2023-03-19T07:56:28;93961.28;;;10.26;100.00
39739;BME280;25422;48.286;8.484;2023-03-19T07:58:54;93953.06;;;10.60;100.00
39739;BME280;25422;48.286;8.484;2023-03-19T08:01:20;93953.38;;;10.80;100.00
39739;BME280;25422;48.286;8.484;2023-03-19T08:03:45;93958.97;;;10.77;100.00
39739;BME280;25422;48.286;8.484;2023-03-19T08:06:13;93957.06;;;11.09;100.00
39739;BME280;25422;48.286;8.484;2023-03-19T08:08:38;93954.69;;;10.61;100.00
39739;BME280;25422;48.286;8.484;2023-03-19T08:11:03;93959.56;;;10.65;100.00
39739;BME280;25422;48.286;8.484;2023-03-19T08:13:29;93971.72;;;10.26;100.00
39739;BME280;25422;48.286;8.484;2023-03-19T08:15:55;93964.88;;;10.25;100.00
39739;BME280;25422;48.286;8.484;2023-03-19T08:18:22;93972.88;;;9.92;100.00
39739;BME280;25422;48.286;8.484;2023-03-19T08:20:48;93960.84;;;10.14;100.00
39739;BME280;25422;48.286;8.484;2023-03-19T08:23:14;93971.56;;;9.96;100.00
39739;BME280;25422;48.286;8.484;2023-03-19T08:25:39;93966.28;;;9.73;100.00
39739;BME280;25422;48.286;8.484;2023-03-19T08:28:05;93968.44;;;9.61;100.00
39739;BME280;25422;48.286;8.484;2023-03-19T08:30:31;93972.22;;;9.50;100.00
39739;BME280;25422;48.286;8.484;2023-03-19T08:32:57;93969.44;;;9.52;100.00
39739;BME280;25422;48.286;8.484;2023-03-19T08:35:23;93969.19;;;9.78;100.00
39739;BME280;25422;48.286;8.484;2023-03-19T08:37:51;93966.38;;;10.51;100.00
39739;BME280;25422;48.286;8.484;2023-03-19T08:40:17;93969.66;;;11.44;100.00
39739;BME280;25422;48.286;8.484;2023-03-19T08:42:42;93959.78;;;11.91;96.59
39739;BME280;25422;48.286;8.484;2023-03-19T08:45:09;93960.06;;;12.47;89.23
39739;BME280;25422;48.286;8.484;2023-03-19T08:47:35;93966.88;;;12.63;86.86
39739;BME280;25422;48.286;8.484;2023-03-19T08:50:00;93969.84;;;12.02;88.92
39739;BME280;25422;48.286;8.484;2023-03-19T08:52:26;93972.28;;;11.89;94.50
39739;BME280;25422;48.286;8.484;2023-03-19T08:54:51;93973.00;;;11.38;96.48
39739;BME280;25422;48.286;8.484;2023-03-19T08:57:17;93968.41;;;10.87;100.00
39739;BME280;25422;48.286;8.484;2023-03-19T08:59:42;93968.19;;;11.11;99.81
39739;BME280;25422;48.286;8.484;2023-03-19T09:02:09;93958.97;;;10.77;100.00
39739;BME280;25422;48.286;8.484;2023-03-19T09:04:39;93969.03;;;10.89;100.00
39739;BME280;25422;48.286;8.484;2023-03-19T09:07:05;93974.44;;;10.87;99.12
39739;BME280;25422;48.286;8.484;2023-03-19T09:09:31;93971.13;;;11.76;93.19
39739;BME280;25422;48.286;8.484;2023-03-19T09:11:56;93977.25;;;11.84;88.29
39739;BME280;25422;48.286;8.484;2023-03-19T09:14:22;93972.09;;;12.42;84.68
39739;BME280;25422;48.286;8.484;2023-03-19T09:16:48;93970.94;;;12.08;83.08
39739;BME280;25422;48.286;8.484;2023-03-19T09:19:13;93976.31;;;12.58;86.11
39739;BME280;25422;48.286;8.484;2023-03-19T09:21:41;93971.00;;;12.94;76.30
39739;BME280;25422;48.286;8.484;2023-03-19T09:24:07;93972.41;;;13.19;73.64
39739;BME280;25422;48.286;8.484;2023-03-19T09:26:33;93982.50;;;12.72;74.44
39739;BME280;25422;48.286;8.484;2023-03-19T09:28:58;93975.56;;;13.64;72.46
39739;BME280;25422;48.286;8.484;2023-03-19T09:31:24;93973.78;;;13.71;67.60
39739;BME280;25422;48.286;8.484;2023-03-19T09:33:50;93979.22;;;13.13;69.27
39739;BME280;25422;48.286;8.484;2023-03-19T09:36:15;93988.06;;;12.62;72.82
39739;BME280;25422;48.286;8.484;2023-03-19T09:38:40;93980.28;;;13.40;67.91
39739;BME280;25422;48.286;8.484;2023-03-19T09:41:09;93976.50;;;13.28;67.38
39739;BME280;25422;48.286;8.484;2023-03-19T09:52:04;93968.69;;;12.41;74.12
39739;BME280;25422;48.286;8.484;2023-03-19T09:54:44;93977.47;;;12.34;72.97
39739;BME280;25422;48.286;8.484;2023-03-19T09:57:11;93975.06;;;12.54;76.66
39739;BME280;25422;48.286;8.484;2023-03-19T09:59:38;93974.84;;;13.83;70.95
39739;BME280;25422;48.286;8.484;2023-03-19T10:02:30;93972.84;;;13.86;66.24
39739;BME280;25422;48.286;8.484;2023-03-19T10:05:21;93971.16;;;13.43;67.64
39739;BME280;25422;48.286;8.484;2023-03-19T10:13:15;93974.25;;;13.46;66.44
39739;BME280;25422;48.286;8.484;2023-03-19T10:15:45;93974.19;;;13.40;66.58
39739;BME280;25422;48.286;8.484;2023-03-19T10:18:16;93971.53;;;13.68;65.46
39739;BME280;25422;48.286;8.484;2023-03-19T10:23:33;93973.34;;;14.09;60.96
39739;BME280;25422;48.286;8.484;2023-03-19T10:26:03;93974.75;;;13.98;62.37
39739;BME280;25422;48.286;8.484;2023-03-19T10:28:30;93973.75;;;14.06;59.65
39739;BME280;25422;48.286;8.484;2023-03-19T10:34:04;93968.59;;;14.33;57.58
39739;BME280;25422;48.286;8.484;2023-03-19T10:36:35;93971.16;;;14.13;58.10
39739;BME280;25422;48.286;8.484;2023-03-19T10:39:02;93972.28;;;13.97;57.19
39739;BME280;25422;48.286;8.484;2023-03-19T10:44:26;93971.19;;;13.78;59.18
39739;BME280;25422;48.286;8.484;2023-03-19T10:46:56;93969.28;;;14.00;58.44
39739;BME280;25422;48.286;8.484;2023-03-19T10:49:22;93959.03;;;13.70;58.93
39739;BME280;25422;48.286;8.484;2023-03-19T10:51:47;93967.84;;;13.56;62.14
39739;BME280;25422;48.286;8.484;2023-03-19T10:54:23;93963.75;;;13.25;64.83
39739;BME280;25422;48.286;8.484;2023-03-19T10:56:50;93965.72;;;13.16;68.44
39739;BME280;25422;48.286;8.484;2023-03-19T10:59:39;93969.50;;;13.35;66.85
39739;BME280;25422;48.286;8.484;2023-03-19T11:02:19;93971.69;;;12.60;67.78
39739;BME280;25422;48.286;8.484;2023-03-19T11:04:45;93963.56;;;12.76;70.34
39739;BME280;25422;48.286;8.484;2023-03-19T11:07:18;93964.84;;;12.87;67.87
39739;BME280;25422;48.286;8.484;2023-03-19T11:09:46;93967.63;;;12.79;66.77
39739;BME280;25422;48.286;8.484;2023-03-19T11:14:41;93973.41;;;13.18;68.45
39739;BME280;25422;48.286;8.484;2023-03-19T11:17:26;93970.16;;;12.94;69.50
39739;BME280;25422;48.286;8.484;2023-03-19T11:19:57;93973.50;;;13.03;69.36
39739;BME280;25422;48.286;8.484;2023-03-19T11:22:27;93968.59;;;13.49;69.75
39739;BME280;25422;48.286;8.484;2023-03-19T11:24:56;93964.31;;;13.42;66.01
39739;BME280;25422;48.286;8.484;2023-03-19T11:27:32;93968.06;;;13.61;65.81
39739;BME280;25422;48.286;8.484;2023-03-19T11:30:00;93966.47;;;14.02;64.12
39739;BME280;25422;48.286;8.484;2023-03-19T11:35:20;93958.50;;;13.53;66.81
39739;BME280;25422;48.286;8.484;2023-03-19T11:37:54;93958.56;;;13.60;66.71
39739;BME280;25422;48.286;8.484;2023-03-19T11:40:42;93958.97;;;13.07;68.87
39739;BME280;25422;48.286;8.484;2023-03-19T11:46:18;93957.16;;;12.86;71.50
39739;BME280;25422;48.286;8.484;2023-03-19T11:51:41;93952.31;;;12.39;76.12
39739;BME280;25422;48.286;8.484;2023-03-19T11:54:22;93948.50;;;12.05;79.71
39739;BME280;25422;48.286;8.484;2023-03-19T12:07:51;93950.00;;;12.94;79.09
39739;BME280;25422;48.286;8.484;2023-03-19T12:10:33;93955.66;;;12.98;77.47
39739;BME280;25422;48.286;8.484;2023-03-19T12:13:13;93954.63;;;12.49;79.10
39739;BME280;25422;48.286;8.484;2023-03-19T12:24:03;93958.56;;;12.81;80.32
39739;BME280;25422;48.286;8.484;2023-03-19T12:26:44;93946.81;;;12.77;79.58
39739;BME280;25422;48.286;8.484;2023-03-19T12:29:17;93946.84;;;13.34;78.68
39739;BME280;25422;48.286;8.484;2023-03-19T12:34:27;93946.69;;;13.36;75.50
39739;BME280;25422;48.286;8.484;2023-03-19T12:39:42;93947.09;;;13.68;70.59
39739;BME280;25422;48.286;8.484;2023-03-19T12:42:13;93939.97;;;13.61;69.86
39739;BME280;25422;48.286;8.484;2023-03-19T12:44:48;93938.59;;;13.72;72.20
39739;BME280;25422;48.286;8.484;2023-03-19T12:47:23;93936.44;;;13.82;71.39
39739;BME280;25422;48.286;8.484;2023-03-19T12:49:55;93939.53;;;13.58;74.85
39739;BME280;25422;48.286;8.484;2023-03-19T12:52:34;93941.47;;;13.42;76.93
39739;BME280;25422;48.286;8.484;2023-03-19T12:55:29;93939.72;;;13.28;75.92
39739;BME280;25422;48.286;8.484;2023-03-19T12:58:06;93935.19;;;12.65;83.43
39739;BME280;25422;48.286;8.484;2023-03-19T13:00:45;93938.88;;;12.71;84.00
39739;BME280;25422;48.286;8.484;2023-03-19T13:03:45;93943.06;;;12.43;86.80
39739;BME280;25422;48.286;8.484;2023-03-19T13:06:22;93943.25;;;12.42;88.94
39739;BME280;25422;48.286;8.484;2023-03-19T13:08:56;93943.91;;;12.07;90.52
39739;BME280;25422;48.286;8.484;2023-03-19T13:14:46;93951.94;;;11.76;96.17
39739;BME280;25422;48.286;8.484;2023-03-19T13:20:13;93947.66;;;12.20;94.99
39739;BME280;25422;48.286;8.484;2023-03-19T13:22:46;93943.69;;;12.45;90.88
39739;BME280;25422;48.286;8.484;2023-03-19T13:25:21;93946.78;;;12.99;88.59
39739;BME280;25422;48.286;8.484;2023-03-19T13:27:53;93945.06;;;12.85;83.59
39739;BME280;25422;48.286;8.484;2023-03-19T13:30:21;93943.63;;;12.60;85.97
39739;BME280;25422;48.286;8.484;2023-03-19T13:32:48;93939.75;;;12.35;88.25
39739;BME280;25422;48.286;8.484;2023-03-19T13:41:00;93936.13;;;12.14;88.32
39739;BME280;25422;48.286;8.484;2023-03-19T13:46:04;93944.25;;;12.04;90.78
39739;BME280;25422;48.286;8.484;2023-03-19T13:54:11;93947.16;;;11.94;91.17
39739;BME280;25422;48.286;8.484;2023-03-19T13:57:15;93933.41;;;11.92;89.52
39739;BME280;25422;48.286;8.484;2023-03-19T13:59:44;93941.44;;;11.91;89.47
39739;BME280;25422;48.286;8.484;2023-03-19T14:05:01;93929.53;;;11.88;89.01
39739;BME280;25422;48.286;8.484;2023-03-19T14:07:36;93930.78;;;11.92;90.48
39739;BME280;25422;48.286;8.484;2023-03-19T14:10:07;93929.28;;;11.68;93.89
39739;BME280;25422;48.286;8.484;2023-03-19T14:12:35;93931.88;;;11.83;94.13
39739;BME280;25422;48.286;8.484;2023-03-19T14:17:36;93926.72;;;11.90;94.16
39739;BME280;25422;48.286;8.484;2023-03-19T14:26:31;93916.34;;;12.55;85.02
39739;BME280;25422;48.286;8.484;2023-03-19T14:28:44;93916.75;;;12.58;83.82
39739;BME280;25422;48.286;8.484;2023-03-19T14:31:32;93932.19;;;12.46;78.84
39739;BME280;25422;48.286;8.484;2023-03-19T14:34:11;93922.13;;;12.28;81.05
39739;BME280;25422;48.286;8.484;2023-03-19T14:36:44;93915.31;;;12.34;81.13
39739;BME280;25422;48.286;8.484;2023-03-19T14:39:18;93920.88;;;12.46;80.07
39739;BME280;25422;48.286;8.484;2023-03-19T14:41:49;93910.19;;;12.26;80.12